sensor_id;sensor_type;location;lat;lon;timestamp;P1;durP1;ratioP1;P2;durP2;ratioP2
74833;SDS011;63361;52.384;20.930;2022-10-28T00:02:19;105.17;;;33.90;;
74833;SDS011;63361;52.384;20.930;2022-10-28T00:04:44;128.33;;;36.50;;
74833;SDS011;63361;52.384;20.930;2022-10-28T00:07:10;107.33;;;33.43;;
74833;SDS011;63361;52.384;20.930;2022-10-28T00:09:35;124.23;;;33.83;;
74833;SDS011;63361;52.384;20.930;2022-10-28T00:12:00;100.33;;;34.87;;
74833;SDS011;63361;52.384;20.930;2022-10-28T00:14:26;165.60;;;35.63;;
74833;SDS011;63361;52.384;20.930;2022-10-28T00:16:51;169.30;;;38.53;;
74833;SDS011;63361;52.384;20.930;2022-10-28T00:19:16;213.60;;;42.53;;
74833;SDS011;63361;52.384;20.930;2022-10-28T00:21:42;260.93;;;44.13;;
74833;SDS011;63361;52.384;20.930;2022-10-28T00:24:09;164.43;;;36.13;;
74833;SDS011;63361;52.384;20.930;2022-10-28T00:26:36;141.27;;;33.85;;
74833;SDS011;63361;52.384;20.930;2022-10-28T00:29:06;170.60;;;33.97;;
74833;SDS011;63361;52.384;20.930;2022-10-28T00:31:34;169.07;;;34.40;;
74833;SDS011;63361;52.384;20.930;2022-10-28T00:34:01;173.25;;;35.28;;
74833;SDS011;63361;52.384;20.930;2022-10-28T00:36:31;233.63;;;39.50;;
74833;SDS011;63361;52.384;20.930;2022-10-28T00:38:58;170.27;;;36.38;;
74833;SDS011;63361;52.384;20.930;2022-10-28T00:41:26;188.40;;;40.70;;
74833;SDS011;63361;52.384;20.930;2022-10-28T00:43:54;174.98;;;38.85;;
74833;SDS011;63361;52.384;20.930;2022-10-28T00:51:52;174.45;;;38.03;;
74833;SDS011;63361;52.384;20.930;2022-10-28T00:54:20;145.57;;;36.00;;
74833;SDS011;63361;52.384;20.930;2022-10-28T00:56:48;151.10;;;35.83;;
74833;SDS011;63361;52.384;20.930;2022-10-28T00:59:27;223.73;;;40.00;;
74833;SDS011;63361;52.384;20.930;2022-10-28T01:01:56;204.43;;;35.97;;
74833;SDS011;63361;52.384;20.930;2022-10-28T01:04:21;259.38;;;42.60;;
74833;SDS011;63361;52.384;20.930;2022-10-28T01:06:47;172.77;;;38.27;;
74833;SDS011;63361;52.384;20.930;2022-10-28T01:09:13;217.70;;;40.05;;
74833;SDS011;63361;52.384;20.930;2022-10-28T01:11:43;175.00;;;39.40;;
74833;SDS011;63361;52.384;20.930;2022-10-28T01:22:52;258.48;;;36.38;;
74833;SDS011;63361;52.384;20.930;2022-10-28T01:25:35;260.58;;;38.95;;
74833;SDS011;63361;52.384;20.930;2022-10-28T01:33:53;299.47;;;40.60;;
74833;SDS011;63361;52.384;20.930;2022-10-28T01:39:06;298.27;;;42.30;;
74833;SDS011;63361;52.384;20.930;2022-10-28T01:52:55;359.52;;;47.50;;
74833;SDS011;63361;52.384;20.930;2022-10-28T01:55:26;300.98;;;42.55;;
74833;SDS011;63361;52.384;20.930;2022-10-28T01:57:56;433.45;;;52.17;;
74833;SDS011;63361;52.384;20.930;2022-10-28T02:00:24;291.27;;;44.13;;
74833;SDS011;63361;52.384;20.930;2022-10-28T02:02:50;278.95;;;46.92;;
74833;SDS011;63361;52.384;20.930;2022-10-28T02:13:25;229.35;;;41.38;;
74833;SDS011;63361;52.384;20.930;2022-10-28T02:16:36;366.00;;;51.00;;
74833;SDS011;63361;52.384;20.930;2022-10-28T02:21:59;206.43;;;43.90;;
74833;SDS011;63361;52.384;20.930;2022-10-28T02:29:53;300.60;;;46.75;;
74833;SDS011;63361;52.384;20.930;2022-10-28T02:32:26;244.65;;;43.33;;
74833;SDS011;63361;52.384;20.930;2022-10-28T02:34:55;441.42;;;52.22;;
74833;SDS011;63361;52.384;20.930;2022-10-28T02:37:25;275.77;;;47.00;;
74833;SDS011;63361;52.384;20.930;2022-10-28T02:39:55;369.20;;;50.70;;
74833;SDS011;63361;52.384;20.930;2022-10-28T02:42:26;391.30;;;50.97;;
74833;SDS011;63361;52.384;20.930;2022-10-28T02:44:57;453.00;;;51.90;;
74833;SDS011;63361;52.384;20.930;2022-10-28T02:47:27;464.90;;;53.10;;
74833;SDS011;63361;52.384;20.930;2022-10-28T02:49:58;441.97;;;52.57;;
74833;SDS011;63361;52.384;20.930;2022-10-28T02:52:27;414.65;;;50.00;;
74833;SDS011;63361;52.384;20.930;2022-10-28T02:54:56;418.10;;;54.42;;
74833;SDS011;63361;52.384;20.930;2022-10-28T02:57:25;399.77;;;54.67;;
74833;SDS011;63361;52.384;20.930;2022-10-28T02:59:55;278.73;;;45.13;;
74833;SDS011;63361;52.384;20.930;2022-10-28T03:02:25;351.13;;;44.67;;
74833;SDS011;63361;52.384;20.930;2022-10-28T03:04:51;232.63;;;41.28;;
74833;SDS011;63361;52.384;20.930;2022-10-28T03:07:17;337.20;;;46.72;;
74833;SDS011;63361;52.384;20.930;2022-10-28T03:09:42;220.13;;;38.13;;
74833;SDS011;63361;52.384;20.930;2022-10-28T03:12:08;384.23;;;49.00;;
74833;SDS011;63361;52.384;20.930;2022-10-28T03:14:33;393.93;;;49.57;;
74833;SDS011;63361;52.384;20.930;2022-10-28T03:16:59;376.98;;;47.80;;
74833;SDS011;63361;52.384;20.930;2022-10-28T03:19:24;431.07;;;52.60;;
74833;SDS011;63361;52.384;20.930;2022-10-28T03:21:49;456.67;;;53.33;;
74833;SDS011;63361;52.384;20.930;2022-10-28T03:24:15;408.43;;;53.43;;
74833;SDS011;63361;52.384;20.930;2022-10-28T03:26:40;453.73;;;50.30;;
74833;SDS011;63361;52.384;20.930;2022-10-28T03:29:05;422.23;;;50.13;;
74833;SDS011;63361;52.384;20.930;2022-10-28T03:31:31;363.77;;;51.03;;
74833;SDS011;63361;52.384;20.930;2022-10-28T03:33:56;319.87;;;47.97;;
74833;SDS011;63361;52.384;20.930;2022-10-28T03:36:22;284.27;;;44.17;;
74833;SDS011;63361;52.384;20.930;2022-10-28T03:38:47;328.27;;;44.30;;
74833;SDS011;63361;52.384;20.930;2022-10-28T03:41:12;216.53;;;41.47;;
74833;SDS011;63361;52.384;20.930;2022-10-28T03:43:38;325.27;;;43.83;;
74833;SDS011;63361;52.384;20.930;2022-10-28T03:46:03;438.20;;;46.63;;
74833;SDS011;63361;52.384;20.930;2022-10-28T03:48:29;428.02;;;46.33;;
74833;SDS011;63361;52.384;20.930;2022-10-28T03:50:54;370.40;;;46.80;;
74833;SDS011;63361;52.384;20.930;2022-10-28T03:53:20;332.23;;;45.00;;
74833;SDS011;63361;52.384;20.930;2022-10-28T03:55:51;348.90;;;45.50;;
74833;SDS011;63361;52.384;20.930;2022-10-28T03:58:17;260.73;;;44.50;;
74833;SDS011;63361;52.384;20.930;2022-10-28T04:00:43;197.47;;;39.93;;
74833;SDS011;63361;52.384;20.930;2022-10-28T04:03:08;149.13;;;38.30;;
74833;SDS011;63361;52.384;20.930;2022-10-28T04:05:33;131.73;;;34.73;;
74833;SDS011;63361;52.384;20.930;2022-10-28T04:07:59;253.43;;;39.70;;
74833;SDS011;63361;52.384;20.930;2022-10-28T04:10:24;273.35;;;38.22;;
74833;SDS011;63361;52.384;20.930;2022-10-28T04:12:49;188.33;;;37.90;;
74833;SDS011;63361;52.384;20.930;2022-10-28T04:15:15;228.03;;;40.17;;
74833;SDS011;63361;52.384;20.930;2022-10-28T04:17:40;190.00;;;38.10;;
74833;SDS011;63361;52.384;20.930;2022-10-28T04:20:06;236.07;;;38.85;;
74833;SDS011;63361;52.384;20.930;2022-10-28T04:22:32;164.67;;;37.37;;
74833;SDS011;63361;52.384;20.930;2022-10-28T04:24:58;307.63;;;42.05;;
74833;SDS011;63361;52.384;20.930;2022-10-28T04:27:23;300.77;;;44.60;;
74833;SDS011;63361;52.384;20.930;2022-10-28T04:29:48;329.20;;;48.30;;
74833;SDS011;63361;52.384;20.930;2022-10-28T04:32:14;265.93;;;51.37;;
74833;SDS011;63361;52.384;20.930;2022-10-28T04:34:39;267.08;;;45.83;;
74833;SDS011;63361;52.384;20.930;2022-10-28T04:37:04;291.37;;;47.73;;
74833;SDS011;63361;52.384;20.930;2022-10-28T04:39:30;240.77;;;44.07;;
74833;SDS011;63361;52.384;20.930;2022-10-28T04:41:55;262.03;;;47.63;;
74833;SDS011;63361;52.384;20.930;2022-10-28T04:44:20;265.80;;;50.83;;
74833;SDS011;63361;52.384;20.930;2022-10-28T04:46:46;275.00;;;56.90;;
74833;SDS011;63361;52.384;20.930;2022-10-28T04:49:11;248.70;;;56.25;;
74833;SDS011;63361;52.384;20.930;2022-10-28T04:51:37;256.87;;;57.40;;
74833;SDS011;63361;52.384;20.930;2022-10-28T04:54:02;277.80;;;57.23;;
74833;SDS011;63361;52.384;20.930;2022-10-28T04:56:28;244.70;;;55.03;;
74833;SDS011;63361;52.384;20.930;2022-10-28T04:58:55;260.10;;;59.07;;
74833;SDS011;63361;52.384;20.930;2022-10-28T05:01:20;234.93;;;56.53;;
74833;SDS011;63361;52.384;20.930;2022-10-28T05:03:45;271.87;;;58.27;;
74833;SDS011;63361;52.384;20.930;2022-10-28T05:06:11;232.10;;;53.57;;
74833;SDS011;63361;52.384;20.930;2022-10-28T05:08:36;169.07;;;48.17;;
74833;SDS011;63361;52.384;20.930;2022-10-28T05:11:01;231.57;;;50.77;;
74833;SDS011;63361;52.384;20.930;2022-10-28T05:13:27;236.67;;;51.40;;
74833;SDS011;63361;52.384;20.930;2022-10-28T05:15:52;215.60;;;47.97;;
74833;SDS011;63361;52.384;20.930;2022-10-28T05:18:17;156.23;;;44.60;;
74833;SDS011;63361;52.384;20.930;2022-10-28T05:20:43;145.32;;;39.78;;
74833;SDS011;63361;52.384;20.930;2022-10-28T05:23:08;138.47;;;40.80;;
74833;SDS011;63361;52.384;20.930;2022-10-28T05:25:34;114.30;;;36.87;;
74833;SDS011;63361;52.384;20.930;2022-10-28T05:27:59;128.80;;;38.33;;
74833;SDS011;63361;52.384;20.930;2022-10-28T05:30:25;129.70;;;37.57;;
74833;SDS011;63361;52.384;20.930;2022-10-28T05:32:57;137.68;;;37.55;;
74833;SDS011;63361;52.384;20.930;2022-10-28T05:35:24;146.43;;;40.92;;
74833;SDS011;63361;52.384;20.930;2022-10-28T05:37:50;145.87;;;42.87;;
74833;SDS011;63361;52.384;20.930;2022-10-28T05:40:15;128.07;;;40.17;;
74833;SDS011;63361;52.384;20.930;2022-10-28T05:42:40;162.17;;;43.77;;
74833;SDS011;63361;52.384;20.930;2022-10-28T05:45:07;180.30;;;47.10;;
74833;SDS011;63361;52.384;20.930;2022-10-28T05:47:34;187.48;;;49.15;;
74833;SDS011;63361;52.384;20.930;2022-10-28T05:49:59;187.13;;;47.87;;
74833;SDS011;63361;52.384;20.930;2022-10-28T05:52:24;169.97;;;46.60;;
74833;SDS011;63361;52.384;20.930;2022-10-28T05:54:50;222.80;;;55.33;;
74833;SDS011;63361;52.384;20.930;2022-10-28T05:57:15;240.90;;;55.03;;
74833;SDS011;63361;52.384;20.930;2022-10-28T05:59:40;198.47;;;54.00;;
74833;SDS011;63361;52.384;20.930;2022-10-28T06:02:08;234.97;;;54.67;;
74833;SDS011;63361;52.384;20.930;2022-10-28T06:04:38;219.20;;;53.33;;
74833;SDS011;63361;52.384;20.930;2022-10-28T06:07:03;210.40;;;55.10;;
74833;SDS011;63361;52.384;20.930;2022-10-28T06:09:28;193.37;;;51.13;;
74833;SDS011;63361;52.384;20.930;2022-10-28T06:11:54;180.87;;;48.37;;
74833;SDS011;63361;52.384;20.930;2022-10-28T06:14:19;202.67;;;50.97;;
74833;SDS011;63361;52.384;20.930;2022-10-28T06:16:44;219.60;;;51.10;;
74833;SDS011;63361;52.384;20.930;2022-10-28T06:19:10;229.55;;;53.53;;
74833;SDS011;63361;52.384;20.930;2022-10-28T06:21:35;242.23;;;55.60;;
74833;SDS011;63361;52.384;20.930;2022-10-28T06:24:00;227.97;;;54.77;;
74833;SDS011;63361;52.384;20.930;2022-10-28T06:26:26;266.30;;;57.57;;
74833;SDS011;63361;52.384;20.930;2022-10-28T06:28:51;274.67;;;57.83;;
74833;SDS011;63361;52.384;20.930;2022-10-28T06:31:16;328.00;;;59.73;;
74833;SDS011;63361;52.384;20.930;2022-10-28T06:33:42;316.02;;;61.17;;
74833;SDS011;63361;52.384;20.930;2022-10-28T06:36:07;312.87;;;58.53;;
74833;SDS011;63361;52.384;20.930;2022-10-28T06:38:33;385.07;;;66.60;;
74833;SDS011;63361;52.384;20.930;2022-10-28T06:40:58;389.08;;;67.75;;
74833;SDS011;63361;52.384;20.930;2022-10-28T06:43:24;321.47;;;62.07;;
74833;SDS011;63361;52.384;20.930;2022-10-28T06:45:49;292.67;;;58.80;;
74833;SDS011;63361;52.384;20.930;2022-10-28T06:48:19;378.20;;;60.67;;
74833;SDS011;63361;52.384;20.930;2022-10-28T06:50:45;256.77;;;57.67;;
74833;SDS011;63361;52.384;20.930;2022-10-28T06:53:10;331.70;;;55.33;;
74833;SDS011;63361;52.384;20.930;2022-10-28T06:55:35;216.40;;;50.60;;
74833;SDS011;63361;52.384;20.930;2022-10-28T06:58:01;306.90;;;55.50;;
74833;SDS011;63361;52.384;20.930;2022-10-28T07:00:28;250.32;;;53.28;;
74833;SDS011;63361;52.384;20.930;2022-10-28T07:02:54;197.48;;;49.15;;
74833;SDS011;63361;52.384;20.930;2022-10-28T07:05:21;158.43;;;47.27;;
74833;SDS011;63361;52.384;20.930;2022-10-28T07:07:48;255.48;;;54.25;;
74833;SDS011;63361;52.384;20.930;2022-10-28T07:10:14;172.93;;;48.33;;
74833;SDS011;63361;52.384;20.930;2022-10-28T07:12:39;154.38;;;44.80;;
74833;SDS011;63361;52.384;20.930;2022-10-28T07:15:05;146.93;;;43.30;;
74833;SDS011;63361;52.384;20.930;2022-10-28T07:17:31;147.43;;;45.78;;
74833;SDS011;63361;52.384;20.930;2022-10-28T07:19:56;160.23;;;46.10;;
74833;SDS011;63361;52.384;20.930;2022-10-28T07:22:22;165.00;;;51.47;;
74833;SDS011;63361;52.384;20.930;2022-10-28T07:24:47;186.65;;;53.78;;
74833;SDS011;63361;52.384;20.930;2022-10-28T07:27:12;210.43;;;60.60;;
74833;SDS011;63361;52.384;20.930;2022-10-28T07:29:38;165.57;;;53.77;;
74833;SDS011;63361;52.384;20.930;2022-10-28T07:32:03;156.67;;;53.57;;
74833;SDS011;63361;52.384;20.930;2022-10-28T07:34:29;124.75;;;47.72;;
74833;SDS011;63361;52.384;20.930;2022-10-28T07:36:54;104.43;;;47.33;;
74833;SDS011;63361;52.384;20.930;2022-10-28T07:39:20;106.40;;;47.77;;
74833;SDS011;63361;52.384;20.930;2022-10-28T07:41:46;132.50;;;56.25;;
74833;SDS011;63361;52.384;20.930;2022-10-28T07:44:12;106.93;;;52.45;;
74833;SDS011;63361;52.384;20.930;2022-10-28T07:46:38;80.33;;;43.57;;
74833;SDS011;63361;52.384;20.930;2022-10-28T07:49:03;64.50;;;38.13;;
74833;SDS011;63361;52.384;20.930;2022-10-28T07:51:29;54.27;;;32.80;;
74833;SDS011;63361;52.384;20.930;2022-10-28T07:53:55;53.97;;;32.53;;
74833;SDS011;63361;52.384;20.930;2022-10-28T07:56:21;50.05;;;31.08;;
74833;SDS011;63361;52.384;20.930;2022-10-28T07:58:46;51.60;;;30.70;;
74833;SDS011;63361;52.384;20.930;2022-10-28T08:01:14;52.40;;;31.53;;
74833;SDS011;63361;52.384;20.930;2022-10-28T08:03:41;52.13;;;31.10;;
74833;SDS011;63361;52.384;20.930;2022-10-28T08:06:08;35.97;;;26.23;;
74833;SDS011;63361;52.384;20.930;2022-10-28T08:08:37;38.05;;;23.42;;
74833;SDS011;63361;52.384;20.930;2022-10-28T08:11:16;35.80;;;21.83;;
74833;SDS011;63361;52.384;20.930;2022-10-28T08:13:49;34.20;;;21.85;;
74833;SDS011;63361;52.384;20.930;2022-10-28T08:16:15;32.13;;;21.03;;
74833;SDS011;63361;52.384;20.930;2022-10-28T08:18:41;30.45;;;20.85;;
74833;SDS011;63361;52.384;20.930;2022-10-28T08:21:07;35.23;;;21.40;;
74833;SDS011;63361;52.384;20.930;2022-10-28T08:23:34;35.38;;;23.63;;
74833;SDS011;63361;52.384;20.930;2022-10-28T08:26:00;29.08;;;20.65;;
74833;SDS011;63361;52.384;20.930;2022-10-28T08:28:26;33.23;;;20.83;;
74833;SDS011;63361;52.384;20.930;2022-10-28T08:30:51;34.83;;;22.25;;
74833;SDS011;63361;52.384;20.930;2022-10-28T08:33:17;28.73;;;18.97;;
74833;SDS011;63361;52.384;20.930;2022-10-28T08:35:48;28.48;;;18.75;;
74833;SDS011;63361;52.384;20.930;2022-10-28T08:38:14;29.23;;;17.73;;
74833;SDS011;63361;52.384;20.930;2022-10-28T08:46:00;29.55;;;18.95;;
74833;SDS011;63361;52.384;20.930;2022-10-28T08:48:35;32.77;;;19.50;;
74833;SDS011;63361;52.384;20.930;2022-10-28T08:53:40;28.98;;;17.85;;
74833;SDS011;63361;52.384;20.930;2022-10-28T08:56:24;25.53;;;17.33;;
74833;SDS011;63361;52.384;20.930;2022-10-28T08:58:55;26.00;;;16.55;;
74833;SDS011;63361;52.384;20.930;2022-10-28T09:04:04;26.00;;;16.92;;
74833;SDS011;63361;52.384;20.930;2022-10-28T09:06:37;30.02;;;18.50;;
74833;SDS011;63361;52.384;20.930;2022-10-28T09:09:02;26.27;;;18.00;;
74833;SDS011;63361;52.384;20.930;2022-10-28T09:16:54;27.02;;;17.23;;
74833;SDS011;63361;52.384;20.930;2022-10-28T09:35:42;26.40;;;16.85;;
74833;SDS011;63361;52.384;20.930;2022-10-28T09:40:38;21.85;;;15.45;;
74833;SDS011;63361;52.384;20.930;2022-10-28T09:43:12;24.40;;;16.27;;
74833;SDS011;63361;52.384;20.930;2022-10-28T09:45:47;25.42;;;16.27;;
74833;SDS011;63361;52.384;20.930;2022-10-28T09:48:22;23.48;;;16.17;;
74833;SDS011;63361;52.384;20.930;2022-10-28T09:50:52;23.83;;;16.00;;
74833;SDS011;63361;52.384;20.930;2022-10-28T09:55:50;22.90;;;15.77;;
74833;SDS011;63361;52.384;20.930;2022-10-28T09:58:16;23.87;;;15.37;;
74833;SDS011;63361;52.384;20.930;2022-10-28T10:00:42;23.87;;;15.37;;
74833;SDS011;63361;52.384;20.930;2022-10-28T10:03:08;22.73;;;15.40;;
74833;SDS011;63361;52.384;20.930;2022-10-28T10:05:36;22.03;;;14.90;;
74833;SDS011;63361;52.384;20.930;2022-10-28T10:08:06;23.23;;;14.13;;
74833;SDS011;63361;52.384;20.930;2022-10-28T10:13:14;22.35;;;14.95;;
74833;SDS011;63361;52.384;20.930;2022-10-28T10:15:44;25.27;;;15.68;;
74833;SDS011;63361;52.384;20.930;2022-10-28T10:18:17;25.80;;;16.77;;
74833;SDS011;63361;52.384;20.930;2022-10-28T10:20:48;25.45;;;15.30;;
74833;SDS011;63361;52.384;20.930;2022-10-28T10:23:22;21.52;;;15.02;;
74833;SDS011;63361;52.384;20.930;2022-10-28T10:26:05;21.70;;;14.30;;
74833;SDS011;63361;52.384;20.930;2022-10-28T10:28:43;23.55;;;15.38;;
74833;SDS011;63361;52.384;20.930;2022-10-28T10:31:20;22.27;;;15.70;;
74833;SDS011;63361;52.384;20.930;2022-10-28T10:33:51;20.20;;;13.60;;
74833;SDS011;63361;52.384;20.930;2022-10-28T10:36:20;18.77;;;13.55;;
74833;SDS011;63361;52.384;20.930;2022-10-28T10:39:00;21.70;;;14.38;;
74833;SDS011;63361;52.384;20.930;2022-10-28T10:49:24;21.73;;;13.38;;
74833;SDS011;63361;52.384;20.930;2022-10-28T10:51:57;20.55;;;13.77;;
74833;SDS011;63361;52.384;20.930;2022-10-28T10:54:29;24.10;;;13.68;;
74833;SDS011;63361;52.384;20.930;2022-10-28T10:57:13;20.87;;;14.37;;
74833;SDS011;63361;52.384;20.930;2022-10-28T10:59:44;20.63;;;12.70;;
74833;SDS011;63361;52.384;20.930;2022-10-28T11:02:18;22.05;;;12.65;;
74833;SDS011;63361;52.384;20.930;2022-10-28T11:04:56;23.60;;;12.57;;
74833;SDS011;63361;52.384;20.930;2022-10-28T11:07:26;21.38;;;12.85;;
74833;SDS011;63361;52.384;20.930;2022-10-28T11:09:53;19.90;;;12.93;;
74833;SDS011;63361;52.384;20.930;2022-10-28T11:12:33;21.40;;;12.63;;
74833;SDS011;63361;52.384;20.930;2022-10-28T11:15:01;20.23;;;11.93;;
74833;SDS011;63361;52.384;20.930;2022-10-28T11:17:52;17.35;;;11.27;;
74833;SDS011;63361;52.384;20.930;2022-10-28T11:25:51;22.58;;;11.00;;
74833;SDS011;63361;52.384;20.930;2022-10-28T11:36:32;16.30;;;10.43;;
74833;SDS011;63361;52.384;20.930;2022-10-28T11:50:00;15.63;;;10.57;;
74833;SDS011;63361;52.384;20.930;2022-10-28T11:52:33;15.35;;;9.95;;
74833;SDS011;63361;52.384;20.930;2022-10-28T11:55:24;17.75;;;9.55;;
74833;SDS011;63361;52.384;20.930;2022-10-28T11:57:57;17.20;;;9.57;;
74833;SDS011;63361;52.384;20.930;2022-10-28T12:03:39;14.90;;;8.87;;
74833;SDS011;63361;52.384;20.930;2022-10-28T12:11:52;15.18;;;8.05;;
74833;SDS011;63361;52.384;20.930;2022-10-28T12:17:19;14.27;;;8.40;;
74833;SDS011;63361;52.384;20.930;2022-10-28T12:22:28;20.88;;;8.50;;
74833;SDS011;63361;52.384;20.930;2022-10-28T12:25:05;19.42;;;8.80;;
74833;SDS011;63361;52.384;20.930;2022-10-28T12:27:37;14.85;;;8.90;;
74833;SDS011;63361;52.384;20.930;2022-10-28T12:32:37;16.85;;;8.65;;
74833;SDS011;63361;52.384;20.930;2022-10-28T12:35:05;17.90;;;8.18;;
74833;SDS011;63361;52.384;20.930;2022-10-28T12:37:40;14.90;;;7.95;;
74833;SDS011;63361;52.384;20.930;2022-10-28T12:42:40;16.00;;;8.27;;
74833;SDS011;63361;52.384;20.930;2022-10-28T12:45:13;12.38;;;7.20;;
74833;SDS011;63361;52.384;20.930;2022-10-28T12:47:51;14.48;;;7.03;;
74833;SDS011;63361;52.384;20.930;2022-10-28T12:50:36;14.15;;;7.40;;
74833;SDS011;63361;52.384;20.930;2022-10-28T12:58:01;12.83;;;7.30;;
74833;SDS011;63361;52.384;20.930;2022-10-28T13:00:45;13.60;;;7.63;;
74833;SDS011;63361;52.384;20.930;2022-10-28T13:03:15;14.85;;;6.63;;
74833;SDS011;63361;52.384;20.930;2022-10-28T13:16:14;13.57;;;7.00;;
74833;SDS011;63361;52.384;20.930;2022-10-28T13:18:54;13.27;;;6.68;;
74833;SDS011;63361;52.384;20.930;2022-10-28T13:27:03;13.23;;;6.85;;
74833;SDS011;63361;52.384;20.930;2022-10-28T13:29:30;11.93;;;6.60;;
74833;SDS011;63361;52.384;20.930;2022-10-28T13:31:58;12.13;;;6.68;;
74833;SDS011;63361;52.384;20.930;2022-10-28T13:34:29;13.43;;;7.10;;
74833;SDS011;63361;52.384;20.930;2022-10-28T13:36:58;9.73;;;6.30;;
74833;SDS011;63361;52.384;20.930;2022-10-28T13:44:48;15.18;;;7.97;;
74833;SDS011;63361;52.384;20.930;2022-10-28T13:50:07;16.58;;;7.65;;
74833;SDS011;63361;52.384;20.930;2022-10-28T13:52:44;15.60;;;7.45;;
74833;SDS011;63361;52.384;20.930;2022-10-28T13:58:20;13.70;;;8.35;;
74833;SDS011;63361;52.384;20.930;2022-10-28T14:00:48;16.85;;;8.93;;
74833;SDS011;63361;52.384;20.930;2022-10-28T14:03:18;14.50;;;8.60;;
74833;SDS011;63361;52.384;20.930;2022-10-28T14:08:18;18.87;;;9.20;;
74833;SDS011;63361;52.384;20.930;2022-10-28T14:14:00;13.65;;;9.50;;
74833;SDS011;63361;52.384;20.930;2022-10-28T14:16:28;15.37;;;10.33;;
74833;SDS011;63361;52.384;20.930;2022-10-28T14:29:41;15.90;;;10.27;;
74833;SDS011;63361;52.384;20.930;2022-10-28T14:34:54;19.58;;;10.60;;
74833;SDS011;63361;52.384;20.930;2022-10-28T14:37:30;18.08;;;11.20;;
74833;SDS011;63361;52.384;20.930;2022-10-28T14:40:21;17.33;;;12.07;;
74833;SDS011;63361;52.384;20.930;2022-10-28T14:45:39;19.80;;;11.57;;
74833;SDS011;63361;52.384;20.930;2022-10-28T14:50:58;29.90;;;16.33;;
74833;SDS011;63361;52.384;20.930;2022-10-28T14:53:30;23.27;;;12.45;;
74833;SDS011;63361;52.384;20.930;2022-10-28T14:58:41;25.35;;;17.33;;
74833;SDS011;63361;52.384;20.930;2022-10-28T15:04:29;23.65;;;16.50;;
74833;SDS011;63361;52.384;20.930;2022-10-28T15:06:55;22.23;;;12.38;;
74833;SDS011;63361;52.384;20.930;2022-10-28T15:09:28;20.20;;;12.47;;
74833;SDS011;63361;52.384;20.930;2022-10-28T15:11:56;24.02;;;16.20;;
74833;SDS011;63361;52.384;20.930;2022-10-28T15:14:35;25.15;;;15.93;;
74833;SDS011;63361;52.384;20.930;2022-10-28T15:17:08;28.65;;;18.52;;
74833;SDS011;63361;52.384;20.930;2022-10-28T15:19:35;27.27;;;17.17;;
74833;SDS011;63361;52.384;20.930;2022-10-28T15:22:12;25.40;;;16.30;;
74833;SDS011;63361;52.384;20.930;2022-10-28T15:24:40;21.45;;;12.23;;
74833;SDS011;63361;52.384;20.930;2022-10-28T15:27:08;23.80;;;12.75;;
74833;SDS011;63361;52.384;20.930;2022-10-28T15:29:37;19.00;;;12.40;;
74833;SDS011;63361;52.384;20.930;2022-10-28T15:34:53;28.25;;;19.10;;
74833;SDS011;63361;52.384;20.930;2022-10-28T15:37:24;64.65;;;47.25;;
74833;SDS011;63361;52.384;20.930;2022-10-28T15:42:50;89.73;;;60.97;;
74833;SDS011;63361;52.384;20.930;2022-10-28T15:45:24;48.25;;;29.73;;
74833;SDS011;63361;52.384;20.930;2022-10-28T15:47:52;35.58;;;20.17;;
74833;SDS011;63361;52.384;20.930;2022-10-28T15:52:45;21.70;;;14.17;;
74833;SDS011;63361;52.384;20.930;2022-10-28T15:57:47;23.25;;;12.50;;
74833;SDS011;63361;52.384;20.930;2022-10-28T16:00:28;19.70;;;12.97;;
74833;SDS011;63361;52.384;20.930;2022-10-28T16:02:59;23.90;;;13.13;;
74833;SDS011;63361;52.384;20.930;2022-10-28T16:08:01;26.13;;;14.25;;
74833;SDS011;63361;52.384;20.930;2022-10-28T16:10:33;24.15;;;13.98;;
74833;SDS011;63361;52.384;20.930;2022-10-28T16:13:00;27.17;;;13.53;;
74833;SDS011;63361;52.384;20.930;2022-10-28T16:15:27;92.75;;;24.55;;
74833;SDS011;63361;52.384;20.930;2022-10-28T16:17:53;44.60;;;16.83;;
74833;SDS011;63361;52.384;20.930;2022-10-28T16:20:22;34.35;;;14.48;;
74833;SDS011;63361;52.384;20.930;2022-10-28T16:22:53;44.83;;;19.33;;
74833;SDS011;63361;52.384;20.930;2022-10-28T16:25:19;39.85;;;18.75;;
74833;SDS011;63361;52.384;20.930;2022-10-28T16:27:46;27.73;;;14.80;;
74833;SDS011;63361;52.384;20.930;2022-10-28T16:30:11;24.60;;;13.88;;
74833;SDS011;63361;52.384;20.930;2022-10-28T16:32:38;24.25;;;13.48;;
74833;SDS011;63361;52.384;20.930;2022-10-28T16:35:39;18.47;;;11.33;;
74833;SDS011;63361;52.384;20.930;2022-10-28T16:37:57;74.60;;;24.42;;
74833;SDS011;63361;52.384;20.930;2022-10-28T16:40:22;27.93;;;13.27;;
74833;SDS011;63361;52.384;20.930;2022-10-28T16:42:48;18.38;;;11.35;;
74833;SDS011;63361;52.384;20.930;2022-10-28T16:45:14;17.93;;;10.93;;
74833;SDS011;63361;52.384;20.930;2022-10-28T16:47:41;21.08;;;12.15;;
74833;SDS011;63361;52.384;20.930;2022-10-28T16:50:06;22.00;;;12.03;;
74833;SDS011;63361;52.384;20.930;2022-10-28T16:52:33;18.60;;;11.40;;
74833;SDS011;63361;52.384;20.930;2022-10-28T16:54:58;18.15;;;11.25;;
74833;SDS011;63361;52.384;20.930;2022-10-28T16:57:24;16.90;;;10.40;;
74833;SDS011;63361;52.384;20.930;2022-10-28T16:59:50;16.48;;;11.13;;
74833;SDS011;63361;52.384;20.930;2022-10-28T17:02:31;19.07;;;11.77;;
74833;SDS011;63361;52.384;20.930;2022-10-28T17:04:59;19.17;;;12.35;;
74833;SDS011;63361;52.384;20.930;2022-10-28T17:07:25;21.08;;;11.38;;
74833;SDS011;63361;52.384;20.930;2022-10-28T17:09:52;18.30;;;12.10;;
74833;SDS011;63361;52.384;20.930;2022-10-28T17:12:21;21.97;;;12.37;;
74833;SDS011;63361;52.384;20.930;2022-10-28T17:14:48;20.60;;;11.82;;
74833;SDS011;63361;52.384;20.930;2022-10-28T17:17:14;19.60;;;11.60;;
74833;SDS011;63361;52.384;20.930;2022-10-28T17:19:40;18.95;;;11.50;;
74833;SDS011;63361;52.384;20.930;2022-10-28T17:22:06;19.02;;;12.27;;
74833;SDS011;63361;52.384;20.930;2022-10-28T17:24:33;21.50;;;12.07;;
74833;SDS011;63361;52.384;20.930;2022-10-28T17:26:59;23.10;;;12.45;;
74833;SDS011;63361;52.384;20.930;2022-10-28T17:29:25;19.13;;;12.60;;
74833;SDS011;63361;52.384;20.930;2022-10-28T17:31:51;20.42;;;13.32;;
74833;SDS011;63361;52.384;20.930;2022-10-28T17:34:16;21.03;;;13.53;;
74833;SDS011;63361;52.384;20.930;2022-10-28T17:36:42;19.58;;;13.20;;
74833;SDS011;63361;52.384;20.930;2022-10-28T17:39:08;20.97;;;13.43;;
74833;SDS011;63361;52.384;20.930;2022-10-28T17:41:33;21.43;;;12.87;;
74833;SDS011;63361;52.384;20.930;2022-10-28T17:43:59;20.37;;;13.57;;
74833;SDS011;63361;52.384;20.930;2022-10-28T17:46:24;19.45;;;13.18;;
74833;SDS011;63361;52.384;20.930;2022-10-28T17:48:49;24.23;;;14.60;;
74833;SDS011;63361;52.384;20.930;2022-10-28T17:51:15;34.53;;;20.70;;